createdAt,value
2023-05-14T00:00:30.064Z,95081.00
2023-05-14T00:01:30.058Z,95079.00
2023-05-14T00:02:30.152Z,95075.00
2023-05-14T00:03:30.112Z,95079.00
2023-05-14T00:04:30.065Z,95077.00
2023-05-14T00:05:30.024Z,95073.00
2023-05-14T00:06:30.020Z,95073.00
2023-05-14T00:07:30.002Z,95073.00
2023-05-14T00:08:29.996Z,95071.00
2023-05-14T00:09:29.994Z,95075.00
2023-05-14T00:10:29.993Z,95073.00
2023-05-14T00:11:29.978Z,95075.00
2023-05-14T00:12:29.973Z,95075.00
2023-05-14T00:13:29.982Z,95075.00
2023-05-14T00:14:29.956Z,95073.00
2023-05-14T00:15:30.919Z,95075.00
2023-05-14T00:16:30.056Z,95075.00
2023-05-14T00:17:29.954Z,95077.00
2023-05-14T00:18:29.977Z,95077.00
2023-05-14T00:19:29.925Z,95073.00
2023-05-14T00:20:29.917Z,95075.00
2023-05-14T00:21:29.915Z,95073.00
2023-05-14T00:22:29.898Z,95073.00
2023-05-14T00:23:29.895Z,95069.00
2023-05-14T00:24:29.880Z,95067.00
2023-05-14T00:25:29.880Z,95071.00
2023-05-14T00:26:29.862Z,95071.00
2023-05-14T00:27:29.863Z,95069.00
2023-05-14T00:28:29.848Z,95071.00
2023-05-14T00:29:29.871Z,95071.00
2023-05-14T00:30:29.830Z,95069.00
2023-05-14T00:31:29.868Z,95073.00
2023-05-14T00:32:29.891Z,95073.00
2023-05-14T00:33:29.812Z,95071.00
2023-05-14T00:34:29.798Z,95075.00
2023-05-14T00:35:29.800Z,95071.00
2023-05-14T00:36:29.787Z,95073.00
2023-05-14T00:37:29.783Z,95069.00
2023-05-14T00:38:29.807Z,95071.00
2023-05-14T00:39:29.766Z,95071.00
2023-05-14T00:40:29.771Z,95069.00
2023-05-14T00:41:29.749Z,95069.00
2023-05-14T00:42:29.749Z,95069.00
2023-05-14T00:43:29.741Z,95069.00
2023-05-14T00:44:29.739Z,95069.00
2023-05-14T00:45:29.754Z,95071.00
2023-05-14T00:46:29.748Z,95075.00
2023-05-14T00:47:29.753Z,95073.00
2023-05-14T00:48:29.704Z,95073.00
2023-05-14T00:49:29.697Z,95073.00
2023-05-14T00:50:29.710Z,95073.00
2023-05-14T00:51:29.679Z,95071.00
2023-05-14T00:52:29.691Z,95071.00
2023-05-14T00:53:29.707Z,95069.00
2023-05-14T00:54:29.685Z,95069.00
2023-05-14T00:55:29.652Z,95065.00
2023-05-14T00:56:29.642Z,95065.00
2023-05-14T00:57:29.645Z,95065.00
2023-05-14T00:58:29.683Z,95063.00
2023-05-14T00:59:29.656Z,95063.00
2023-05-14T01:00:29.629Z,95061.00
2023-05-14T01:01:29.808Z,95061.00
2023-05-14T01:02:29.706Z,95061.00
2023-05-14T01:03:29.695Z,95061.00
2023-05-14T01:04:29.645Z,95061.00
2023-05-14T01:05:29.592Z,95059.00
2023-05-14T01:06:29.625Z,95057.00
2023-05-14T01:07:29.661Z,95059.00
2023-05-14T01:08:29.662Z,95057.00
2023-05-14T01:09:29.736Z,95057.00
2023-05-14T01:10:29.693Z,95055.00
2023-05-14T01:11:29.715Z,95055.00
2023-05-14T01:12:29.738Z,95055.00
2023-05-14T01:13:29.759Z,95057.00
2023-05-14T01:14:29.800Z,95055.00
2023-05-14T01:15:29.830Z,95057.00
2023-05-14T01:16:29.880Z,95057.00
2023-05-14T01:17:29.900Z,95057.00
2023-05-14T01:18:29.959Z,95055.00
2023-05-14T01:19:29.886Z,95057.00
2023-05-14T01:20:29.946Z,95057.00
2023-05-14T01:21:29.933Z,95059.00
2023-05-14T01:22:29.953Z,95061.00
2023-05-14T01:23:30.004Z,95055.00
2023-05-14T01:24:30.003Z,95055.00
2023-05-14T01:25:30.042Z,95057.00
2023-05-14T01:26:30.044Z,95057.00
2023-05-14T01:27:30.060Z,95057.00
2023-05-14T01:28:30.086Z,95059.00
2023-05-14T01:29:30.122Z,95057.00
2023-05-14T01:30:30.160Z,95051.00
2023-05-14T01:31:30.171Z,95055.00
2023-05-14T01:32:30.229Z,95050.00
2023-05-14T01:33:30.227Z,95053.00
2023-05-14T01:34:30.220Z,95051.00
2023-05-14T01:35:30.296Z,95053.00
2023-05-14T01:36:30.260Z,95051.00
2023-05-14T01:37:30.275Z,95053.00
2023-05-14T01:38:30.306Z,95055.00
2023-05-14T01:39:30.325Z,95055.00
2023-05-14T01:40:30.406Z,95057.00
2023-05-14T01:41:30.424Z,95057.00
2023-05-14T01:42:30.391Z,95057.00
2023-05-14T01:43:30.442Z,95055.00
2023-05-14T01:44:30.459Z,95053.00
2023-05-14T01:45:30.500Z,95051.00
2023-05-14T01:46:30.603Z,95051.00
2023-05-14T01:47:30.539Z,95051.00
2023-05-14T01:48:30.523Z,95053.00
2023-05-14T01:49:30.704Z,95051.00
2023-05-14T01:50:30.604Z,95051.00
2023-05-14T01:51:30.596Z,95053.00
2023-05-14T01:52:30.620Z,95055.00
2023-05-14T01:53:30.638Z,95057.00
2023-05-14T01:54:30.655Z,95053.00
2023-05-14T01:55:30.710Z,95055.00
2023-05-14T01:56:30.707Z,95053.00
2023-05-14T01:57:30.735Z,95055.00
2023-05-14T01:58:30.814Z,95051.00
2023-05-14T01:59:30.786Z,95051.00
2023-05-14T02:00:30.827Z,95051.00
2023-05-14T02:01:30.916Z,95051.00
2023-05-14T02:02:30.934Z,95051.00
2023-05-14T02:03:30.975Z,95044.00
2023-05-14T02:04:30.930Z,95044.00
2023-05-14T02:05:31.004Z,95048.00
2023-05-14T02:06:30.972Z,95048.00
2023-05-14T02:07:31.001Z,95046.00
2023-05-14T02:08:31.013Z,95046.00
2023-05-14T02:09:31.052Z,95044.00
2023-05-14T02:10:31.105Z,95046.00
2023-05-14T02:11:31.106Z,95044.00
2023-05-14T02:12:31.127Z,95044.00
2023-05-14T02:13:31.159Z,95044.00
2023-05-14T02:14:31.185Z,95044.00
2023-05-14T02:15:31.250Z,95042.00
2023-05-14T02:16:31.340Z,95040.00
2023-05-14T02:17:31.333Z,95042.00
2023-05-14T02:18:31.360Z,95040.00
2023-05-14T02:19:31.302Z,95040.00
2023-05-14T02:20:31.395Z,95040.00
2023-05-14T02:21:31.373Z,95040.00
2023-05-14T02:22:31.384Z,95040.00
2023-05-14T02:23:41.106Z,95040.00
2023-05-14T02:24:31.405Z,95036.00
2023-05-14T02:25:31.425Z,95038.00
2023-05-14T02:26:31.389Z,95038.00
2023-05-14T02:27:31.383Z,95038.00
2023-05-14T02:28:31.385Z,95038.00
2023-05-14T02:29:31.370Z,95038.00
2023-05-14T02:30:31.405Z,95038.00
2023-05-14T02:31:31.379Z,95038.00
2023-05-14T02:32:31.461Z,95038.00
2023-05-14T02:33:31.496Z,95044.00
2023-05-14T02:34:31.384Z,95044.00
2023-05-14T02:35:31.323Z,95038.00
2023-05-14T02:36:31.319Z,95036.00
2023-05-14T02:37:31.355Z,95036.00
2023-05-14T02:38:31.391Z,95036.00
2023-05-14T02:39:31.296Z,95032.00
2023-05-14T02:40:31.295Z,95032.00
2023-05-14T02:41:31.287Z,95028.00
2023-05-14T02:42:31.325Z,95028.00
2023-05-14T02:43:31.266Z,95030.00
2023-05-14T02:44:31.261Z,95028.00
2023-05-14T02:45:31.252Z,95026.00
2023-05-14T02:46:31.303Z,95028.00
2023-05-14T02:47:31.268Z,95026.00
2023-05-14T02:48:31.227Z,95022.00
2023-05-14T02:49:31.236Z,95022.00
2023-05-14T02:50:31.242Z,95024.00
2023-05-14T02:51:31.212Z,95016.00
2023-05-14T02:52:31.200Z,95014.00
2023-05-14T02:53:31.221Z,95016.00
2023-05-14T02:54:31.196Z,95012.00
2023-05-14T02:55:31.189Z,95010.00
2023-05-14T02:56:31.173Z,95010.00
2023-05-14T02:57:31.170Z,95008.00
2023-05-14T02:58:31.169Z,95008.00
2023-05-14T02:59:31.176Z,95008.00
2023-05-14T03:00:31.200Z,95008.00
2023-05-14T03:01:31.262Z,95010.00
2023-05-14T03:02:31.337Z,95012.00
2023-05-14T03:03:31.327Z,95012.00
2023-05-14T03:04:31.308Z,95012.00
2023-05-14T03:05:31.330Z,95008.00
2023-05-14T03:06:31.460Z,95010.00
2023-05-14T03:07:31.393Z,95008.00
2023-05-14T03:08:31.417Z,95008.00
2023-05-14T03:09:31.473Z,95008.00
2023-05-14T03:10:31.469Z,95008.00
2023-05-14T03:11:31.523Z,95006.00
2023-05-14T03:12:31.521Z,95006.00
2023-05-14T03:13:31.586Z,95008.00
2023-05-14T03:14:31.589Z,95006.00
2023-05-14T03:15:31.605Z,95008.00
2023-05-14T03:16:31.688Z,95006.00
2023-05-14T03:17:31.713Z,95006.00
2023-05-14T03:18:31.729Z,95006.00
2023-05-14T03:19:31.706Z,95004.00
2023-05-14T03:20:31.752Z,95003.00
2023-05-14T03:21:31.754Z,95003.00
2023-05-14T03:22:31.787Z,95003.00
2023-05-14T03:23:31.812Z,95003.00
2023-05-14T03:24:31.832Z,95003.00
2023-05-14T03:25:31.955Z,95001.00
2023-05-14T03:26:31.935Z,95003.00
2023-05-14T03:27:31.927Z,95001.00
2023-05-14T03:28:31.965Z,95001.00
2023-05-14T03:29:31.974Z,95001.00
2023-05-14T03:30:32.101Z,95003.00
2023-05-14T03:31:32.025Z,95003.00
2023-05-14T03:32:32.086Z,95001.00
2023-05-14T03:33:32.084Z,95001.00
2023-05-14T03:34:32.098Z,95001.00
2023-05-14T03:35:32.139Z,95001.00
2023-05-14T03:36:32.172Z,95001.00
2023-05-14T03:37:32.192Z,95001.00
2023-05-14T03:38:32.234Z,95001.00
2023-05-14T03:39:32.257Z,95003.00
2023-05-14T03:40:32.350Z,95001.00
2023-05-14T03:41:32.353Z,95004.00
2023-05-14T03:42:32.328Z,95003.00
2023-05-14T03:43:32.360Z,95004.00
2023-05-14T03:44:32.381Z,95006.00
2023-05-14T03:45:32.440Z,95008.00
2023-05-14T03:46:32.425Z,95004.00
2023-05-14T03:47:32.498Z,95012.00
2023-05-14T03:48:32.555Z,95014.00
2023-05-14T03:49:32.523Z,95010.00
2023-05-14T03:50:32.554Z,95012.00
2023-05-14T03:51:32.596Z,95012.00
2023-05-14T03:52:32.605Z,95014.00
2023-05-14T03:53:32.634Z,95016.00
2023-05-14T03:54:32.662Z,95020.00
2023-05-14T03:55:32.680Z,95018.00
2023-05-14T03:56:32.697Z,95022.00
2023-05-14T03:57:32.750Z,95022.00
2023-05-14T03:58:32.755Z,95026.00
2023-05-14T03:59:32.788Z,95028.00
2023-05-14T04:00:32.824Z,95030.00
2023-05-14T04:01:32.834Z,95028.00
2023-05-14T04:02:32.928Z,95028.00
2023-05-14T04:03:33.060Z,95026.00
2023-05-14T04:04:32.945Z,95028.00
2023-05-14T04:05:32.950Z,95026.00
2023-05-14T04:06:32.975Z,95026.00
2023-05-14T04:07:32.995Z,95028.00
2023-05-14T04:08:33.016Z,95028.00
2023-05-14T04:09:33.054Z,95028.00
2023-05-14T04:10:33.080Z,95024.00
2023-05-14T04:11:33.151Z,95024.00
2023-05-14T04:12:33.152Z,95024.00
2023-05-14T04:13:33.168Z,95024.00
2023-05-14T04:14:33.176Z,95024.00
2023-05-14T04:15:33.198Z,95020.00
2023-05-14T04:16:33.256Z,95020.00
2023-05-14T04:17:34.977Z,95018.00
2023-05-14T04:18:33.279Z,95018.00
2023-05-14T04:19:33.228Z,95018.00
2023-05-14T04:20:33.222Z,95016.00
2023-05-14T04:21:33.220Z,95018.00
2023-05-14T04:22:33.208Z,95014.00
2023-05-14T04:23:33.199Z,95014.00
2023-05-14T04:24:33.188Z,95012.00
2023-05-14T04:25:33.188Z,95010.00
2023-05-14T04:26:33.183Z,95010.00
2023-05-14T04:27:33.192Z,95010.00
2023-05-14T04:28:33.177Z,95008.00
2023-05-14T04:29:33.192Z,95004.00
2023-05-14T04:30:33.157Z,95006.00
2023-05-14T04:31:33.177Z,95004.00
2023-05-14T04:32:33.157Z,95003.00
2023-05-14T04:33:33.128Z,95001.00
2023-05-14T04:34:33.117Z,94999.00
2023-05-14T04:35:33.115Z,94995.00
2023-05-14T04:36:33.104Z,94993.00
2023-05-14T04:37:33.114Z,94993.00
2023-05-14T04:38:33.085Z,94993.00
2023-05-14T04:39:33.075Z,94993.00
2023-05-14T04:40:33.073Z,94995.00
2023-05-14T04:41:33.063Z,94997.00
2023-05-14T04:42:33.062Z,94997.00
2023-05-14T04:43:33.063Z,95001.00
2023-05-14T04:44:33.045Z,95003.00
2023-05-14T04:45:34.253Z,95003.00
2023-05-14T04:46:33.086Z,95004.00
2023-05-14T04:47:33.103Z,95001.00
2023-05-14T04:48:33.075Z,95001.00
2023-05-14T04:49:33.100Z,95001.00
2023-05-14T04:50:33.157Z,95001.00
2023-05-14T04:51:33.165Z,94999.00
2023-05-14T04:52:33.181Z,95001.00
2023-05-14T04:53:33.208Z,95003.00
2023-05-14T04:54:33.284Z,95001.00
2023-05-14T04:55:33.268Z,95001.00
2023-05-14T04:56:33.301Z,95003.00
2023-05-14T04:57:33.332Z,95004.00
2023-05-14T04:58:35.121Z,95004.00
2023-05-14T04:59:33.333Z,95006.00
2023-05-14T05:00:33.338Z,95008.00
2023-05-14T05:01:33.471Z,95008.00
2023-05-14T05:02:33.368Z,95010.00
2023-05-14T05:03:33.337Z,95010.00
2023-05-14T05:04:33.299Z,95008.00
2023-05-14T05:05:33.293Z,95010.00
2023-05-14T05:06:33.293Z,95008.00
2023-05-14T05:07:33.308Z,95008.00
2023-05-14T05:08:33.271Z,95008.00
2023-05-14T05:09:33.267Z,95008.00
2023-05-14T05:10:33.264Z,95008.00
2023-05-14T05:11:33.258Z,95006.00
2023-05-14T05:12:33.251Z,95010.00
2023-05-14T05:13:33.240Z,95006.00
2023-05-14T05:14:33.234Z,95008.00
2023-05-14T05:15:33.235Z,95008.00
2023-05-14T05:16:33.280Z,95012.00
2023-05-14T05:17:33.256Z,95010.00
2023-05-14T05:18:33.240Z,95008.00
2023-05-14T05:19:42.893Z,95008.00
2023-05-14T05:20:33.190Z,95008.00
2023-05-14T05:21:33.188Z,95008.00
2023-05-14T05:22:33.181Z,95006.00
2023-05-14T05:23:33.170Z,95006.00
2023-05-14T05:24:33.161Z,95006.00
2023-05-14T05:25:33.149Z,95006.00
2023-05-14T05:26:33.146Z,95006.00
2023-05-14T05:27:33.152Z,95008.00
2023-05-14T05:28:33.127Z,95010.00
2023-05-14T05:29:33.126Z,95012.00
2023-05-14T05:30:33.128Z,95012.00
2023-05-14T05:31:33.176Z,95012.00
2023-05-14T05:32:33.170Z,95012.00
2023-05-14T05:33:33.119Z,95010.00
2023-05-14T05:34:33.102Z,95008.00
2023-05-14T05:35:33.085Z,95004.00
2023-05-14T05:36:33.123Z,95004.00
2023-05-14T05:37:33.073Z,95003.00
2023-05-14T05:38:33.062Z,95001.00
2023-05-14T05:39:33.070Z,95001.00
2023-05-14T05:40:33.055Z,94999.00
2023-05-14T05:41:33.044Z,94997.00
2023-05-14T05:42:33.041Z,95001.00
2023-05-14T05:43:33.032Z,94999.00
2023-05-14T05:44:33.022Z,95001.00
2023-05-14T05:45:33.007Z,95001.00
2023-05-14T05:46:33.092Z,94997.00
2023-05-14T05:47:33.038Z,94995.00
2023-05-14T05:48:32.990Z,94993.00
2023-05-14T05:49:33.145Z,94991.00
2023-05-14T05:50:32.991Z,94991.00
2023-05-14T05:51:32.977Z,94987.00
2023-05-14T05:52:32.967Z,94989.00
2023-05-14T05:53:32.957Z,94987.00
2023-05-14T05:54:32.949Z,94991.00
2023-05-14T05:55:32.939Z,94991.00
2023-05-14T05:56:32.936Z,94989.00
2023-05-14T05:57:32.940Z,94987.00
2023-05-14T05:58:32.919Z,94985.00
2023-05-14T05:59:32.912Z,94981.00
2023-05-14T06:00:32.906Z,94979.00
2023-05-14T06:01:32.900Z,94981.00
2023-05-14T06:02:33.036Z,94979.00
2023-05-14T06:03:32.885Z,94981.00
2023-05-14T06:04:32.885Z,94981.00
2023-05-14T06:05:32.913Z,94979.00
2023-05-14T06:06:33.015Z,94981.00
2023-05-14T06:07:32.921Z,94979.00
2023-05-14T06:08:32.949Z,94979.00
2023-05-14T06:09:32.973Z,94979.00
2023-05-14T06:10:32.988Z,94977.00
2023-05-14T06:11:33.011Z,94971.00
2023-05-14T06:12:33.041Z,94969.00
2023-05-14T06:13:33.057Z,94967.00
2023-05-14T06:14:33.077Z,94967.00
2023-05-14T06:15:33.099Z,94967.00
2023-05-14T06:16:33.164Z,94965.00
2023-05-14T06:17:33.179Z,94962.00
2023-05-14T06:18:33.226Z,94962.00
2023-05-14T06:19:33.191Z,94956.00
2023-05-14T06:20:33.211Z,94959.00
2023-05-14T06:21:33.255Z,94957.00
2023-05-14T06:22:33.247Z,94957.00
2023-05-14T06:23:33.288Z,94956.00
2023-05-14T06:24:33.285Z,94954.00
2023-05-14T06:25:33.307Z,94954.00
2023-05-14T06:26:33.337Z,94952.00
2023-05-14T06:27:33.347Z,94950.00
2023-05-14T06:28:33.370Z,94950.00
2023-05-14T06:29:33.392Z,94952.00
2023-05-14T06:30:33.409Z,94952.00
2023-05-14T06:31:33.504Z,94954.00
2023-05-14T06:32:33.523Z,94954.00
2023-05-14T06:33:33.463Z,94952.00
2023-05-14T06:34:33.474Z,94950.00
2023-05-14T06:35:33.495Z,94952.00
2023-05-14T06:36:33.515Z,94954.00
2023-05-14T06:37:33.561Z,94950.00
2023-05-14T06:38:33.561Z,94956.00
2023-05-14T06:39:33.591Z,94956.00
2023-05-14T06:40:33.625Z,94957.00
2023-05-14T06:41:33.638Z,94962.00
2023-05-14T06:42:33.658Z,94959.00
2023-05-14T06:43:33.681Z,94962.00
2023-05-14T06:44:33.707Z,94964.00
2023-05-14T06:45:33.725Z,94964.00
2023-05-14T06:46:33.755Z,94964.00
2023-05-14T06:47:33.789Z,94964.00
2023-05-14T06:48:33.811Z,94962.00
2023-05-14T06:49:33.807Z,94965.00
2023-05-14T06:50:33.818Z,94964.00
2023-05-14T06:51:33.846Z,94962.00
2023-05-14T06:52:33.875Z,94962.00
2023-05-14T06:53:33.918Z,94959.00
2023-05-14T06:54:33.917Z,94959.00
2023-05-14T06:55:33.924Z,94957.00
2023-05-14T06:56:33.944Z,94956.00
2023-05-14T06:57:33.970Z,94957.00
2023-05-14T06:58:33.989Z,94957.00
2023-05-14T06:59:34.016Z,94957.00
2023-05-14T07:00:34.042Z,94957.00
2023-05-14T07:01:34.072Z,94956.00
2023-05-14T07:02:34.142Z,94957.00
2023-05-14T07:03:34.093Z,94954.00
2023-05-14T07:04:34.140Z,94954.00
2023-05-14T07:05:34.132Z,94956.00
2023-05-14T07:06:34.153Z,94956.00
2023-05-14T07:07:34.165Z,94956.00
2023-05-14T07:08:34.182Z,94957.00
2023-05-14T07:09:34.252Z,94957.00
2023-05-14T07:10:34.325Z,94956.00
2023-05-14T07:11:34.247Z,94956.00
2023-05-14T07:12:34.274Z,94956.00
2023-05-14T07:13:34.292Z,94956.00
2023-05-14T07:14:34.320Z,94954.00
2023-05-14T07:15:34.322Z,94950.00
2023-05-14T07:16:34.342Z,94950.00
2023-05-14T07:17:34.362Z,94948.00
2023-05-14T07:18:34.458Z,94948.00
2023-05-14T07:19:34.379Z,94948.00
2023-05-14T07:20:34.476Z,94946.00
2023-05-14T07:21:34.441Z,94942.00
2023-05-14T07:22:34.434Z,94942.00
2023-05-14T07:23:34.455Z,94942.00
2023-05-14T07:24:34.498Z,94938.00
2023-05-14T07:25:34.524Z,94934.00
2023-05-14T07:26:34.515Z,94930.00
2023-05-14T07:27:34.528Z,94928.00
2023-05-14T07:28:34.563Z,94922.00
2023-05-14T07:29:34.572Z,94920.00
2023-05-14T07:30:34.586Z,94918.00
2023-05-14T07:31:34.639Z,94909.00
2023-05-14T07:32:34.660Z,94909.00
2023-05-14T07:33:34.642Z,94907.00
2023-05-14T07:34:34.662Z,94907.00
2023-05-14T07:35:34.676Z,94907.00
2023-05-14T07:36:34.692Z,94905.00
2023-05-14T07:37:34.712Z,94903.00
2023-05-14T07:38:34.758Z,94901.00
2023-05-14T07:39:34.737Z,94897.00
2023-05-14T07:40:34.757Z,94895.00
2023-05-14T07:41:34.794Z,94893.00
2023-05-14T07:42:36.963Z,94893.00
2023-05-14T07:43:34.777Z,94891.00
2023-05-14T07:44:34.781Z,94893.00
2023-05-14T07:45:34.764Z,94891.00
2023-05-14T07:46:34.777Z,94891.00
2023-05-14T07:47:34.895Z,94893.00
2023-05-14T07:48:34.811Z,94895.00
2023-05-14T07:49:34.727Z,94893.00
2023-05-14T07:50:34.729Z,94895.00
2023-05-14T07:51:34.734Z,94895.00
2023-05-14T07:52:34.730Z,94895.00
2023-05-14T07:53:34.709Z,94893.00
2023-05-14T07:54:34.701Z,94893.00
2023-05-14T07:55:34.697Z,94895.00
2023-05-14T07:56:34.696Z,94895.00
2023-05-14T07:57:34.753Z,94891.00
2023-05-14T07:58:34.677Z,94893.00
2023-05-14T07:59:34.667Z,94893.00
2023-05-14T08:00:34.663Z,94893.00
2023-05-14T08:01:34.653Z,94893.00
2023-05-14T08:02:34.705Z,94891.00
2023-05-14T08:03:34.720Z,94891.00
2023-05-14T08:04:34.714Z,94891.00
2023-05-14T08:05:34.634Z,94889.00
2023-05-14T08:06:34.620Z,94889.00
2023-05-14T08:07:34.637Z,94889.00
2023-05-14T08:08:34.605Z,94887.00
2023-05-14T08:09:34.600Z,94889.00
2023-05-14T08:10:34.655Z,94887.00
2023-05-14T08:11:34.603Z,94885.00
2023-05-14T08:12:34.587Z,94883.00
2023-05-14T08:13:34.615Z,94883.00
2023-05-14T08:14:34.572Z,94883.00
2023-05-14T08:15:34.557Z,94881.00
2023-05-14T08:16:34.659Z,94877.00
2023-05-14T08:17:34.604Z,94875.00
2023-05-14T08:18:34.601Z,94875.00
2023-05-14T08:19:34.524Z,94875.00
2023-05-14T08:20:34.522Z,94875.00
2023-05-14T08:21:34.515Z,94875.00
2023-05-14T08:22:34.529Z,94873.00
2023-05-14T08:23:34.510Z,94875.00
2023-05-14T08:24:34.505Z,94875.00
2023-05-14T08:25:34.487Z,94873.00
2023-05-14T08:26:34.480Z,94872.00
2023-05-14T08:27:34.476Z,94872.00
2023-05-14T08:28:34.463Z,94872.00
2023-05-14T08:29:34.482Z,94870.00
2023-05-14T08:30:34.565Z,94870.00
2023-05-14T08:31:34.437Z,94870.00
2023-05-14T08:32:34.458Z,94868.00
2023-05-14T08:33:34.432Z,94868.00
2023-05-14T08:34:34.416Z,94866.00
2023-05-14T08:35:34.413Z,94866.00
2023-05-14T08:36:34.404Z,94864.00
2023-05-14T08:37:34.395Z,94864.00
2023-05-14T08:38:34.406Z,94868.00
2023-05-14T08:39:34.382Z,94866.00
2023-05-14T08:40:34.366Z,94866.00
2023-05-14T08:41:34.361Z,94868.00
2023-05-14T08:42:34.363Z,94866.00
2023-05-14T08:43:34.353Z,94866.00
2023-05-14T08:44:34.343Z,94866.00
2023-05-14T08:45:34.432Z,94864.00
2023-05-14T08:46:34.328Z,94866.00
2023-05-14T08:47:34.346Z,94864.00
2023-05-14T08:48:34.433Z,94862.00
2023-05-14T08:49:34.305Z,94864.00
2023-05-14T08:50:34.301Z,94864.00
2023-05-14T08:51:34.294Z,94864.00
2023-05-14T08:52:34.284Z,94862.00
2023-05-14T08:53:34.273Z,94860.00
2023-05-14T08:54:34.281Z,94864.00
2023-05-14T08:55:34.295Z,94862.00
2023-05-14T08:56:34.251Z,94858.00
2023-05-14T08:57:34.355Z,94860.00
2023-05-14T08:58:34.249Z,94862.00
2023-05-14T08:59:34.232Z,94860.00
2023-05-14T09:00:34.225Z,94860.00
2023-05-14T09:01:34.261Z,94858.00
2023-05-14T09:02:34.254Z,94858.00
2023-05-14T09:03:34.283Z,94858.00
2023-05-14T09:04:34.223Z,94860.00
2023-05-14T09:05:34.203Z,94862.00
2023-05-14T09:06:34.182Z,94860.00
2023-05-14T09:07:34.175Z,94860.00
2023-05-14T09:08:34.171Z,94860.00
2023-05-14T09:09:34.164Z,94858.00
2023-05-14T09:10:34.155Z,94860.00
2023-05-14T09:11:34.149Z,94856.00
2023-05-14T09:12:34.145Z,94858.00
2023-05-14T09:13:34.140Z,94856.00
2023-05-14T09:14:34.211Z,94854.00
2023-05-14T09:15:34.120Z,94854.00
2023-05-14T09:16:34.169Z,94856.00
2023-05-14T09:17:34.196Z,94850.00
2023-05-14T09:18:34.150Z,94850.00
2023-05-14T09:19:34.101Z,94856.00
2023-05-14T09:20:34.094Z,94854.00
2023-05-14T09:21:34.085Z,94854.00
2023-05-14T09:22:34.072Z,94850.00
2023-05-14T09:23:34.062Z,94850.00
2023-05-14T09:24:34.062Z,94848.00
2023-05-14T09:25:34.050Z,94842.00
2023-05-14T09:26:34.044Z,94838.00
2023-05-14T09:27:34.050Z,94834.00
2023-05-14T09:28:34.020Z,94834.00
2023-05-14T09:29:34.020Z,94832.00
2023-05-14T09:30:34.022Z,94832.00
2023-05-14T09:31:34.015Z,94832.00
2023-05-14T09:32:34.053Z,94834.00
2023-05-14T09:33:34.070Z,94832.00
2023-05-14T09:34:34.063Z,94832.00
2023-05-14T09:35:33.979Z,94832.00
2023-05-14T09:36:33.975Z,94830.00
2023-05-14T09:37:33.982Z,94830.00
2023-05-14T09:38:33.959Z,94832.00
2023-05-14T09:39:33.970Z,94832.00
2023-05-14T09:40:33.976Z,94830.00
2023-05-14T09:41:33.967Z,94830.00
2023-05-14T09:42:33.953Z,94830.00
2023-05-14T09:43:33.944Z,94830.00
2023-05-14T09:44:33.990Z,94830.00
2023-05-14T09:45:33.937Z,94828.00
2023-05-14T09:46:33.936Z,94826.00
2023-05-14T09:47:33.993Z,94824.00
2023-05-14T09:48:33.957Z,94824.00
2023-05-14T09:49:33.945Z,94824.00
2023-05-14T09:50:33.923Z,94818.00
2023-05-14T09:51:33.912Z,94815.00
2023-05-14T09:52:33.905Z,94817.00
2023-05-14T09:53:33.919Z,94815.00
2023-05-14T09:54:33.981Z,94815.00
2023-05-14T09:55:33.960Z,94811.00
2023-05-14T09:56:33.955Z,94813.00
2023-05-14T09:57:33.962Z,94813.00
2023-05-14T09:58:33.966Z,94815.00
2023-05-14T09:59:33.956Z,94813.00
2023-05-14T10:00:33.975Z,94809.00
2023-05-14T10:01:34.056Z,94809.00
2023-05-14T10:02:34.070Z,94807.00
2023-05-14T10:03:33.989Z,94811.00
2023-05-14T10:04:34.051Z,94809.00
2023-05-14T10:05:34.001Z,94807.00
2023-05-14T10:06:33.973Z,94809.00
2023-05-14T10:07:33.986Z,94805.00
2023-05-14T10:08:33.991Z,94803.00
2023-05-14T10:09:33.997Z,94803.00
2023-05-14T10:10:34.012Z,94799.00
2023-05-14T10:11:34.043Z,94799.00
2023-05-14T10:12:34.047Z,94797.00
2023-05-14T10:13:34.062Z,94797.00
2023-05-14T10:14:34.150Z,94795.00
2023-05-14T10:15:34.107Z,94793.00
2023-05-14T10:16:35.150Z,94795.00
2023-05-14T10:17:34.163Z,94791.00
2023-05-14T10:18:34.153Z,94787.00
2023-05-14T10:19:34.157Z,94787.00
2023-05-14T10:20:34.170Z,94787.00
2023-05-14T10:21:34.211Z,94785.00
2023-05-14T10:22:34.185Z,94785.00
2023-05-14T10:23:34.192Z,94785.00
2023-05-14T10:24:34.238Z,94785.00
2023-05-14T10:25:34.216Z,94783.00
2023-05-14T10:26:34.228Z,94783.00
2023-05-14T10:27:34.242Z,94783.00
2023-05-14T10:28:34.259Z,94783.00
2023-05-14T10:29:34.283Z,94781.00
2023-05-14T10:30:34.307Z,94779.00
2023-05-14T10:31:34.370Z,94778.00
2023-05-14T10:32:34.497Z,94776.00
2023-05-14T10:33:34.393Z,94776.00
2023-05-14T10:34:34.401Z,94770.00
2023-05-14T10:35:34.419Z,94774.00
2023-05-14T10:36:34.443Z,94770.00
2023-05-14T10:37:34.540Z,94770.00
2023-05-14T10:38:34.459Z,94770.00
2023-05-14T10:39:34.481Z,94768.00
2023-05-14T10:40:34.526Z,94766.00
2023-05-14T10:41:34.534Z,94764.00
2023-05-14T10:42:34.565Z,94764.00
2023-05-14T10:43:34.592Z,94762.00
2023-05-14T10:44:34.622Z,94762.00
2023-05-14T10:45:34.647Z,94764.00
2023-05-14T10:46:34.759Z,94762.00
2023-05-14T10:47:34.742Z,94760.00
2023-05-14T10:48:34.766Z,94758.00
2023-05-14T10:49:42.933Z,94756.00
2023-05-14T10:50:34.816Z,94756.00
2023-05-14T10:51:34.901Z,94754.00
2023-05-14T10:52:34.813Z,94750.00
2023-05-14T10:53:34.827Z,94756.00
2023-05-14T10:54:34.788Z,94750.00
2023-05-14T10:55:34.782Z,94750.00
2023-05-14T10:56:34.770Z,94748.00
2023-05-14T10:57:34.784Z,94750.00
2023-05-14T10:58:34.757Z,94752.00
2023-05-14T10:59:34.749Z,94752.00
2023-05-14T11:00:34.741Z,94752.00
2023-05-14T11:01:34.780Z,94750.00
2023-05-14T11:02:34.774Z,94748.00
2023-05-14T11:03:34.791Z,94748.00
2023-05-14T11:04:34.727Z,94744.00
2023-05-14T11:05:34.717Z,94744.00
2023-05-14T11:06:34.702Z,94740.00
2023-05-14T11:07:34.702Z,94740.00
2023-05-14T11:08:34.726Z,94738.00
2023-05-14T11:09:34.705Z,94740.00
2023-05-14T11:10:34.674Z,94738.00
2023-05-14T11:11:34.661Z,94736.00
2023-05-14T11:12:34.659Z,94734.00
2023-05-14T11:13:34.731Z,94734.00
2023-05-14T11:14:34.650Z,94730.00
2023-05-14T11:15:34.638Z,94730.00
2023-05-14T11:16:34.717Z,94728.00
2023-05-14T11:17:34.738Z,94726.00
2023-05-14T11:18:34.817Z,94724.00
2023-05-14T11:19:34.787Z,94723.00
2023-05-14T11:20:34.846Z,94719.00
2023-05-14T11:21:34.949Z,94721.00
2023-05-14T11:22:34.971Z,94721.00
2023-05-14T11:23:35.020Z,94719.00
2023-05-14T11:24:35.065Z,94717.00
2023-05-14T11:25:35.141Z,94713.00
2023-05-14T11:26:35.180Z,94713.00
2023-05-14T11:27:35.225Z,94713.00
2023-05-14T11:28:35.263Z,94713.00
2023-05-14T11:29:35.305Z,94713.00
2023-05-14T11:30:35.347Z,94713.00
2023-05-14T11:31:35.465Z,94715.00
2023-05-14T11:32:35.530Z,94715.00
2023-05-14T11:33:35.495Z,94711.00
2023-05-14T11:34:35.553Z,94709.00
2023-05-14T11:35:35.582Z,94709.00
2023-05-14T11:36:35.620Z,94709.00
2023-05-14T11:37:35.676Z,94711.00
2023-05-14T11:38:35.715Z,94709.00
2023-05-14T11:39:35.762Z,94709.00
2023-05-14T11:40:35.787Z,94709.00
2023-05-14T11:41:35.842Z,94709.00
2023-05-14T11:42:35.832Z,94707.00
2023-05-14T11:43:35.853Z,94705.00
2023-05-14T11:44:35.865Z,94707.00